createdAt,value
2022-09-23T00:00:20.785Z,3.60
2022-09-23T00:20:20.519Z,3.90
2022-09-23T00:40:20.287Z,3.60
2022-09-23T01:00:20.040Z,3.70
2022-09-23T01:20:19.754Z,3.60
2022-09-23T01:40:19.529Z,6.10
2022-09-23T02:00:19.164Z,3.20
2022-09-23T02:20:18.893Z,2.50
2022-09-23T02:40:18.668Z,4.70
2022-09-23T03:00:18.380Z,3.50
2022-09-23T03:20:18.088Z,4.20
2022-09-23T03:40:17.854Z,3.10
2022-09-23T04:00:17.544Z,2.00
2022-09-23T04:20:17.270Z,3.70
2022-09-23T04:40:17.009Z,4.80
2022-09-23T05:00:16.709Z,3.80
2022-09-23T05:20:16.430Z,3.70
2022-09-23T05:40:16.202Z,4.50
2022-09-23T06:00:15.872Z,4.00
2022-09-23T06:20:15.617Z,4.70
2022-09-23T06:40:15.334Z,6.60
2022-09-23T07:00:15.081Z,4.30
2022-09-23T07:20:14.775Z,4.90
2022-09-23T07:40:14.593Z,4.70
2022-09-23T08:00:14.223Z,5.50
2022-09-23T08:20:14.224Z,3.90
2022-09-23T08:40:13.766Z,3.00
2022-09-23T09:00:13.500Z,2.70
2022-09-23T09:20:13.184Z,4.00
2022-09-23T09:40:12.956Z,2.80
2022-09-23T10:00:12.606Z,3.80
2022-09-23T10:20:12.315Z,2.80
2022-09-23T10:40:12.090Z,2.90
2022-09-23T11:00:11.749Z,2.80
2022-09-23T11:20:11.507Z,3.00
2022-09-23T11:40:11.468Z,2.20
2022-09-23T12:00:11.007Z,2.70
2022-09-23T12:20:10.790Z,3.10
2022-09-23T12:40:10.543Z,2.20
2022-09-23T13:00:10.264Z,2.90
2022-09-23T13:20:09.956Z,2.40
2022-09-23T13:40:09.679Z,2.30
2022-09-23T14:00:09.306Z,4.00
2022-09-23T14:20:09.050Z,3.30
2022-09-23T14:40:08.791Z,2.60
2022-09-23T15:00:08.469Z,3.80
2022-09-23T15:20:08.196Z,2.60
2022-09-23T15:40:07.955Z,3.90
2022-09-23T16:00:07.684Z,2.80
2022-09-23T16:20:07.380Z,3.00
2022-09-23T16:40:07.257Z,3.20
2022-09-23T17:00:06.839Z,3.50
2022-09-23T17:20:06.594Z,5.30
2022-09-23T17:48:58.021Z,4.70
2022-09-23T18:09:01.920Z,6.90
2022-09-23T18:28:57.454Z,4.50
2022-09-23T18:48:57.181Z,4.90
2022-09-23T19:08:56.908Z,4.40
2022-09-23T19:28:56.627Z,4.50
2022-09-23T19:48:56.352Z,6.40
2022-09-23T20:08:56.081Z,7.40
2022-09-23T20:28:55.836Z,6.20
2022-09-23T20:48:55.524Z,4.70
2022-09-23T21:08:56.253Z,4.20
2022-09-23T21:28:54.978Z,4.30
2022-09-23T21:48:54.708Z,8.10
2022-09-23T22:08:54.463Z,6.20
2022-09-23T22:28:54.152Z,7.40
2022-09-23T22:48:53.882Z,7.00
2022-09-23T23:08:53.637Z,8.00
2022-09-23T23:29:00.885Z,6.90
2022-09-23T23:48:53.090Z,7.40
